sensor_id;sensor_type;location;lat;lon;timestamp;pressure;altitude;pressure_sealevel;temperature;humidity
35151;BME280;55720;51.972;4.624;2023-02-13T00:02:12;102969.81;;;6.27;100.00
35151;BME280;55720;51.972;4.624;2023-02-13T00:04:38;102962.69;;;6.26;100.00
35151;BME280;55720;51.972;4.624;2023-02-13T00:07:04;102967.59;;;6.24;100.00
35151;BME280;55720;51.972;4.624;2023-02-13T00:09:29;102962.06;;;6.19;100.00
35151;BME280;55720;51.972;4.624;2023-02-13T00:11:54;102952.56;;;6.21;100.00
35151;BME280;55720;51.972;4.624;2023-02-13T00:14:20;102954.19;;;6.22;100.00
35151;BME280;55720;51.972;4.624;2023-02-13T00:16:45;102958.84;;;6.22;100.00
35151;BME280;55720;51.972;4.624;2023-02-13T00:19:10;102942.94;;;6.19;100.00
35151;BME280;55720;51.972;4.624;2023-02-13T00:21:36;102941.97;;;6.25;100.00
35151;BME280;55720;51.972;4.624;2023-02-13T00:24:01;102945.03;;;6.28;100.00
35151;BME280;55720;51.972;4.624;2023-02-13T00:26:27;102940.88;;;6.26;100.00
35151;BME280;55720;51.972;4.624;2023-02-13T00:28:52;102944.19;;;6.28;100.00
35151;BME280;55720;51.972;4.624;2023-02-13T00:31:19;102942.81;;;6.25;100.00
35151;BME280;55720;51.972;4.624;2023-02-13T00:33:45;102945.44;;;6.20;100.00
35151;BME280;55720;51.972;4.624;2023-02-13T00:36:14;102937.91;;;6.27;100.00
35151;BME280;55720;51.972;4.624;2023-02-13T00:38:40;102937.66;;;6.29;100.00
35151;BME280;55720;51.972;4.624;2023-02-13T00:41:06;102942.59;;;6.32;100.00
35151;BME280;55720;51.972;4.624;2023-02-13T00:43:32;102945.03;;;6.28;100.00
35151;BME280;55720;51.972;4.624;2023-02-13T00:45:57;102939.56;;;6.28;100.00
35151;BME280;55720;51.972;4.624;2023-02-13T00:48:24;102940.63;;;6.27;100.00
35151;BME280;55720;51.972;4.624;2023-02-13T00:50:50;102948.50;;;6.24;100.00
35151;BME280;55720;51.972;4.624;2023-02-13T00:53:19;102937.34;;;6.25;100.00
35151;BME280;55720;51.972;4.624;2023-02-13T00:55:45;102936.25;;;6.26;100.00
35151;BME280;55720;51.972;4.624;2023-02-13T00:58:10;102942.81;;;6.25;100.00
35151;BME280;55720;51.972;4.624;2023-02-13T01:00:36;102933.84;;;6.30;100.00
35151;BME280;55720;51.972;4.624;2023-02-13T01:03:02;102938.13;;;6.26;100.00
35151;BME280;55720;51.972;4.624;2023-02-13T01:05:27;102927.50;;;6.24;100.00
35151;BME280;55720;51.972;4.624;2023-02-13T01:07:53;102926.09;;;6.22;100.00
35151;BME280;55720;51.972;4.624;2023-02-13T01:10:19;102933.50;;;6.26;100.00
35151;BME280;55720;51.972;4.624;2023-02-13T01:12:44;102924.50;;;6.26;100.00
35151;BME280;55720;51.972;4.624;2023-02-13T01:15:10;102925.09;;;6.28;100.00
35151;BME280;55720;51.972;4.624;2023-02-13T01:17:35;102929.63;;;6.22;100.00
35151;BME280;55720;51.972;4.624;2023-02-13T01:20:05;102932.38;;;6.22;100.00
35151;BME280;55720;51.972;4.624;2023-02-13T01:22:30;102928.38;;;6.30;100.00
35151;BME280;55720;51.972;4.624;2023-02-13T01:24:56;102921.44;;;6.22;100.00
35151;BME280;55720;51.972;4.624;2023-02-13T01:27:21;102925.59;;;6.25;100.00
35151;BME280;55720;51.972;4.624;2023-02-13T01:29:47;102913.91;;;6.29;100.00
35151;BME280;55720;51.972;4.624;2023-02-13T01:32:12;102913.09;;;6.29;100.00
35151;BME280;55720;51.972;4.624;2023-02-13T01:34:38;102912.00;;;6.30;100.00
35151;BME280;55720;51.972;4.624;2023-02-13T01:37:03;102911.44;;;6.28;100.00
35151;BME280;55720;51.972;4.624;2023-02-13T01:39:29;102917.66;;;6.23;100.00
35151;BME280;55720;51.972;4.624;2023-02-13T01:41:54;102915.53;;;6.25;100.00
35151;BME280;55720;51.972;4.624;2023-02-13T01:44:45;102913.28;;;6.22;100.00
35151;BME280;55720;51.972;4.624;2023-02-13T01:47:14;102914.06;;;6.18;100.00
35151;BME280;55720;51.972;4.624;2023-02-13T01:49:40;102916.28;;;6.21;100.00
35151;BME280;55720;51.972;4.624;2023-02-13T01:52:10;102918.16;;;6.20;100.00
35151;BME280;55720;51.972;4.624;2023-02-13T01:54:37;102912.47;;;6.22;100.00
35151;BME280;55720;51.972;4.624;2023-02-13T01:57:13;102909.16;;;6.20;100.00
35151;BME280;55720;51.972;4.624;2023-02-13T02:00:00;102913.03;;;6.24;100.00
35151;BME280;55720;51.972;4.624;2023-02-13T02:02:27;102908.09;;;6.21;100.00
35151;BME280;55720;51.972;4.624;2023-02-13T02:04:55;102899.91;;;6.21;100.00
35151;BME280;55720;51.972;4.624;2023-02-13T02:10:42;102903.78;;;6.25;100.00
35151;BME280;55720;51.972;4.624;2023-02-13T02:13:18;102912.28;;;6.28;100.00
35151;BME280;55720;51.972;4.624;2023-02-13T02:15:45;102913.84;;;6.24;100.00
35151;BME280;55720;51.972;4.624;2023-02-13T02:18:17;102902.19;;;6.29;100.00
35151;BME280;55720;51.972;4.624;2023-02-13T02:45:16;102892.03;;;6.24;100.00
35151;BME280;55720;51.972;4.624;2023-02-13T02:48:17;102893.50;;;6.32;100.00
35151;BME280;55720;51.972;4.624;2023-02-13T02:54:10;102892.59;;;6.26;100.00
35151;BME280;55720;51.972;4.624;2023-02-13T02:57:02;102887.66;;;6.23;100.00
35151;BME280;55720;51.972;4.624;2023-02-13T02:59:30;102891.72;;;6.21;100.00
35151;BME280;55720;51.972;4.624;2023-02-13T03:02:27;102884.69;;;6.25;100.00
35151;BME280;55720;51.972;4.624;2023-02-13T03:05:20;102887.13;;;6.26;100.00
35151;BME280;55720;51.972;4.624;2023-02-13T03:08:05;102884.69;;;6.25;100.00
35151;BME280;55720;51.972;4.624;2023-02-13T03:10:32;102889.03;;;6.26;100.00
35151;BME280;55720;51.972;4.624;2023-02-13T03:13:32;102883.09;;;6.29;100.00
35151;BME280;55720;51.972;4.624;2023-02-13T03:16:00;102889.13;;;6.31;100.00
35151;BME280;55720;51.972;4.624;2023-02-13T03:18:46;102887.22;;;6.31;100.00
35151;BME280;55720;51.972;4.624;2023-02-13T03:30:24;102882.28;;;6.28;100.00
35151;BME280;55720;51.972;4.624;2023-02-13T03:38:56;102886.59;;;6.24;100.00
35151;BME280;55720;51.972;4.624;2023-02-13T03:41:30;102881.63;;;6.21;100.00
35151;BME280;55720;51.972;4.624;2023-02-13T03:46:40;102878.00;;;6.16;100.00
35151;BME280;55720;51.972;4.624;2023-02-13T03:49:10;102876.69;;;6.18;100.00
35151;BME280;55720;51.972;4.624;2023-02-13T03:52:06;102867.16;;;6.21;100.00
35151;BME280;55720;51.972;4.624;2023-02-13T03:54:46;102862.53;;;6.21;100.00
35151;BME280;55720;51.972;4.624;2023-02-13T03:57:32;102861.72;;;6.21;100.00
35151;BME280;55720;51.972;4.624;2023-02-13T04:00:19;102859.31;;;6.24;100.00
35151;BME280;55720;51.972;4.624;2023-02-13T04:02:57;102855.19;;;6.22;100.00
35151;BME280;55720;51.972;4.624;2023-02-13T04:05:28;102848.06;;;6.21;100.00
35151;BME280;55720;51.972;4.624;2023-02-13T04:07:55;102847.75;;;6.17;100.00
35151;BME280;55720;51.972;4.624;2023-02-13T04:10:21;102843.69;;;6.20;100.00
35151;BME280;55720;51.972;4.624;2023-02-13T04:15:35;102854.47;;;6.10;100.00
35151;BME280;55720;51.972;4.624;2023-02-13T04:20:30;102848.13;;;6.04;100.00
35151;BME280;55720;51.972;4.624;2023-02-13T04:22:56;102853.09;;;6.07;100.00
35151;BME280;55720;51.972;4.624;2023-02-13T04:25:21;102843.81;;;6.08;100.00
35151;BME280;55720;51.972;4.624;2023-02-13T04:27:47;102846.81;;;6.07;100.00
35151;BME280;55720;51.972;4.624;2023-02-13T04:30:12;102843.50;;;6.05;100.00
35151;BME280;55720;51.972;4.624;2023-02-13T04:32:38;102841.88;;;6.04;100.00
35151;BME280;55720;51.972;4.624;2023-02-13T04:35:03;102841.03;;;6.03;100.00
35151;BME280;55720;51.972;4.624;2023-02-13T04:37:29;102842.63;;;5.99;100.00
35151;BME280;55720;51.972;4.624;2023-02-13T04:39:54;102842.88;;;5.98;100.00
35151;BME280;55720;51.972;4.624;2023-02-13T04:42:20;102843.78;;;6.03;100.00
35151;BME280;55720;51.972;4.624;2023-02-13T04:44:45;102835.00;;;6.01;100.00
35151;BME280;55720;51.972;4.624;2023-02-13T04:47:10;102842.13;;;6.02;100.00
35151;BME280;55720;51.972;4.624;2023-02-13T04:49:36;102836.09;;;6.00;100.00
35151;BME280;55720;51.972;4.624;2023-02-13T04:52:01;102841.03;;;6.03;100.00
35151;BME280;55720;51.972;4.624;2023-02-13T04:54:27;102837.47;;;6.03;100.00
35151;BME280;55720;51.972;4.624;2023-02-13T04:56:55;102833.69;;;6.04;100.00
35151;BME280;55720;51.972;4.624;2023-02-13T04:59:20;102829.03;;;6.04;100.00
35151;BME280;55720;51.972;4.624;2023-02-13T05:01:46;102832.28;;;6.01;100.00
35151;BME280;55720;51.972;4.624;2023-02-13T05:04:12;102825.22;;;6.05;100.00
35151;BME280;55720;51.972;4.624;2023-02-13T05:06:40;102831.72;;;5.99;100.00
35151;BME280;55720;51.972;4.624;2023-02-13T05:09:06;102830.88;;;5.99;100.00
35151;BME280;55720;51.972;4.624;2023-02-13T05:11:31;102824.38;;;6.00;100.00
35151;BME280;55720;51.972;4.624;2023-02-13T05:13:57;102826.00;;;6.01;100.00
35151;BME280;55720;51.972;4.624;2023-02-13T05:16:22;102820.84;;;6.04;100.00
35151;BME280;55720;51.972;4.624;2023-02-13T05:18:47;102829.03;;;6.04;100.00
35151;BME280;55720;51.972;4.624;2023-02-13T05:21:13;102826.81;;;6.01;100.00
35151;BME280;55720;51.972;4.624;2023-02-13T05:23:57;102835.00;;;6.01;100.00
35151;BME280;55720;51.972;4.624;2023-02-13T05:26:22;102832.78;;;5.98;100.00
35151;BME280;55720;51.972;4.624;2023-02-13T05:28:47;102831.41;;;5.96;100.00
35151;BME280;55720;51.972;4.624;2023-02-13T05:31:31;102836.84;;;5.96;100.00
35151;BME280;55720;51.972;4.624;2023-02-13T05:33:57;102846.38;;;5.93;100.00
35151;BME280;55720;51.972;4.624;2023-02-13T05:36:22;102842.22;;;5.90;100.00
35151;BME280;55720;51.972;4.624;2023-02-13T05:38:48;102846.38;;;5.93;100.00
35151;BME280;55720;51.972;4.624;2023-02-13T05:41:13;102835.47;;;5.93;100.00
35151;BME280;55720;51.972;4.624;2023-02-13T05:43:38;102846.94;;;5.95;100.00
35151;BME280;55720;51.972;4.624;2023-02-13T05:46:06;102842.53;;;5.94;100.00
35151;BME280;55720;51.972;4.624;2023-02-13T05:48:31;102855.97;;;6.01;100.00
35151;BME280;55720;51.972;4.624;2023-02-13T05:50:57;102859.22;;;5.98;100.00
35151;BME280;55720;51.972;4.624;2023-02-13T05:53:22;102868.75;;;5.95;100.00
35151;BME280;55720;51.972;4.624;2023-02-13T05:55:47;102875.25;;;5.94;100.00
35151;BME280;55720;51.972;4.624;2023-02-13T05:58:15;102880.97;;;5.92;100.00
35151;BME280;55720;51.972;4.624;2023-02-13T06:00:40;102892.13;;;5.91;100.00
35151;BME280;55720;51.972;4.624;2023-02-13T06:03:05;102894.94;;;5.96;100.00
35151;BME280;55720;51.972;4.624;2023-02-13T06:05:31;102903.34;;;5.94;100.00
35151;BME280;55720;51.972;4.624;2023-02-13T06:07:56;102912.38;;;5.95;100.00
35151;BME280;55720;51.972;4.624;2023-02-13T06:10:21;102913.44;;;5.94;100.00
35151;BME280;55720;51.972;4.624;2023-02-13T06:12:47;102917.25;;;5.93;100.00
35151;BME280;55720;51.972;4.624;2023-02-13T06:15:12;102910.19;;;5.97;100.00
35151;BME280;55720;51.972;4.624;2023-02-13T06:17:37;102920.78;;;5.93;100.00
35151;BME280;55720;51.972;4.624;2023-02-13T06:20:03;102919.72;;;5.94;100.00
35151;BME280;55720;51.972;4.624;2023-02-13T06:22:29;102927.00;;;5.89;100.00
35151;BME280;55720;51.972;4.624;2023-02-13T06:24:54;102927.84;;;5.89;100.00
35151;BME280;55720;51.972;4.624;2023-02-13T06:27:19;102924.84;;;5.91;100.00
35151;BME280;55720;51.972;4.624;2023-02-13T06:29:45;102930.28;;;5.91;100.00
35151;BME280;55720;51.972;4.624;2023-02-13T06:32:10;102934.84;;;5.85;100.00
35151;BME280;55720;51.972;4.624;2023-02-13T06:34:35;102942.41;;;5.83;100.00
35151;BME280;55720;51.972;4.624;2023-02-13T06:37:01;102958.22;;;5.81;100.00
35151;BME280;55720;51.972;4.624;2023-02-13T06:39:26;102966.94;;;5.83;100.00
35151;BME280;55720;51.972;4.624;2023-02-13T06:41:51;102972.66;;;5.82;100.00
35151;BME280;55720;51.972;4.624;2023-02-13T06:44:17;102994.72;;;5.80;100.00
35151;BME280;55720;51.972;4.624;2023-02-13T06:46:42;103002.88;;;5.80;100.00
35151;BME280;55720;51.972;4.624;2023-02-13T06:49:08;103004.44;;;5.76;100.00
35151;BME280;55720;51.972;4.624;2023-02-13T06:51:34;103021.63;;;5.77;100.00
35151;BME280;55720;51.972;4.624;2023-02-13T06:53:59;103028.16;;;5.76;100.00
35151;BME280;55720;51.972;4.624;2023-02-13T06:56:24;103040.97;;;5.75;100.00
35151;BME280;55720;51.972;4.624;2023-02-13T06:58:50;103056.41;;;5.70;100.00
35151;BME280;55720;51.972;4.624;2023-02-13T07:01:31;103084.16;;;5.67;100.00
35151;BME280;55720;51.972;4.624;2023-02-13T07:03:56;103105.97;;;5.67;100.00
35151;BME280;55720;51.972;4.624;2023-02-13T07:06:22;103129.16;;;5.69;100.00
35151;BME280;55720;51.972;4.624;2023-02-13T07:08:47;103139.25;;;5.69;100.00
35151;BME280;55720;51.972;4.624;2023-02-13T07:11:19;103156.09;;;5.66;100.00
35151;BME280;55720;51.972;4.624;2023-02-13T07:13:44;103177.53;;;5.62;100.00
35151;BME280;55720;51.972;4.624;2023-02-13T07:16:10;103192.38;;;5.55;100.00
35151;BME280;55720;51.972;4.624;2023-02-13T07:18:35;103216.91;;;5.43;100.00
35151;BME280;55720;51.972;4.624;2023-02-13T07:21:01;103230.47;;;5.26;100.00
35151;BME280;55720;51.972;4.624;2023-02-13T07:23:26;103258.41;;;5.10;100.00
35151;BME280;55720;51.972;4.624;2023-02-13T07:25:51;103270.38;;;4.97;100.00
35151;BME280;55720;51.972;4.624;2023-02-13T07:31:23;103336.00;;;4.78;100.00
35151;BME280;55720;51.972;4.624;2023-02-13T07:33:48;103351.41;;;4.72;100.00
35151;BME280;55720;51.972;4.624;2023-02-13T07:36:14;103362.97;;;4.68;100.00
35151;BME280;55720;51.972;4.624;2023-02-13T07:38:39;103377.63;;;4.67;100.00
35151;BME280;55720;51.972;4.624;2023-02-13T07:41:14;103392.44;;;4.71;100.00
35151;BME280;55720;51.972;4.624;2023-02-13T07:43:39;103408.06;;;4.75;100.00
35151;BME280;55720;51.972;4.624;2023-02-13T07:46:05;103419.00;;;4.87;100.00
35151;BME280;55720;51.972;4.624;2023-02-13T07:48:30;103426.03;;;4.94;100.00
35151;BME280;55720;51.972;4.624;2023-02-13T07:51:04;103439.75;;;5.00;100.00
35151;BME280;55720;51.972;4.624;2023-02-13T07:53:33;103443.47;;;5.05;100.00
35151;BME280;55720;51.972;4.624;2023-02-13T07:55:58;103453.56;;;5.16;100.00
35151;BME280;55720;51.972;4.624;2023-02-13T07:58:23;103448.75;;;5.41;100.00
35151;BME280;55720;51.972;4.624;2023-02-13T08:00:49;103444.66;;;6.09;100.00
35151;BME280;55720;51.972;4.624;2023-02-13T08:03:14;103440.81;;;7.01;100.00
35151;BME280;55720;51.972;4.624;2023-02-13T08:05:39;103415.84;;;7.42;100.00
35151;BME280;55720;51.972;4.624;2023-02-13T08:08:05;103346.03;;;7.18;100.00
35151;BME280;55720;51.972;4.624;2023-02-13T08:10:30;103272.63;;;7.05;100.00
35151;BME280;55720;51.972;4.624;2023-02-13T08:13:14;103204.88;;;7.67;100.00
35151;BME280;55720;51.972;4.624;2023-02-13T08:15:40;103134.84;;;8.52;100.00
35151;BME280;55720;51.972;4.624;2023-02-13T08:18:08;103060.66;;;9.05;100.00
35151;BME280;55720;51.972;4.624;2023-02-13T08:20:34;102982.28;;;8.99;100.00
35151;BME280;55720;51.972;4.624;2023-02-13T08:23:08;102944.00;;;8.47;100.00
35151;BME280;55720;51.972;4.624;2023-02-13T08:25:34;102941.41;;;7.83;100.00
35151;BME280;55720;51.972;4.624;2023-02-13T08:28:00;102941.88;;;7.38;100.00
35151;BME280;55720;51.972;4.624;2023-02-13T08:30:26;102941.69;;;7.45;100.00
35151;BME280;55720;51.972;4.624;2023-02-13T08:32:52;102935.88;;;7.41;100.00
35151;BME280;55720;51.972;4.624;2023-02-13T08:35:18;102936.78;;;7.20;100.00
35151;BME280;55720;51.972;4.624;2023-02-13T08:37:47;102941.44;;;7.20;100.00
35151;BME280;55720;51.972;4.624;2023-02-13T08:40:15;102936.22;;;7.18;100.00
35151;BME280;55720;51.972;4.624;2023-02-13T08:42:40;102942.16;;;7.10;100.00
35151;BME280;55720;51.972;4.624;2023-02-13T08:45:06;102946.03;;;7.14;100.00
35151;BME280;55720;51.972;4.624;2023-02-13T08:47:31;102944.00;;;7.31;100.00
35151;BME280;55720;51.972;4.624;2023-02-13T08:49:56;102940.91;;;7.23;100.00
35151;BME280;55720;51.972;4.624;2023-02-13T08:52:22;102942.84;;;7.27;100.00
35151;BME280;55720;51.972;4.624;2023-02-13T08:54:47;102944.63;;;7.12;100.00
35151;BME280;55720;51.972;4.624;2023-02-13T08:57:13;102937.06;;;7.19;100.00
35151;BME280;55720;51.972;4.624;2023-02-13T08:59:40;102937.38;;;7.22;100.00
35151;BME280;55720;51.972;4.624;2023-02-13T09:02:06;102940.94;;;7.28;100.00
35151;BME280;55720;51.972;4.624;2023-02-13T09:04:31;102931.66;;;7.56;100.00
35151;BME280;55720;51.972;4.624;2023-02-13T09:06:57;102936.69;;;7.37;100.00
35151;BME280;55720;51.972;4.624;2023-02-13T09:09:22;102933.41;;;7.40;100.00
35151;BME280;55720;51.972;4.624;2023-02-13T09:11:47;102939.88;;;7.02;100.00
35151;BME280;55720;51.972;4.624;2023-02-13T09:14:15;102935.63;;;7.43;100.00
35151;BME280;55720;51.972;4.624;2023-02-13T09:16:40;102948.84;;;7.24;100.00
35151;BME280;55720;51.972;4.624;2023-02-13T09:19:05;102939.25;;;7.22;100.00
35151;BME280;55720;51.972;4.624;2023-02-13T09:21:31;102943.75;;;7.33;100.00
35151;BME280;55720;51.972;4.624;2023-02-13T09:23:56;102932.44;;;7.24;100.00
35151;BME280;55720;51.972;4.624;2023-02-13T09:26:22;102935.22;;;7.61;100.00
35151;BME280;55720;51.972;4.624;2023-02-13T09:28:47;102946.03;;;7.14;100.00
35151;BME280;55720;51.972;4.624;2023-02-13T09:31:21;102943.38;;;7.24;100.00
35151;BME280;55720;51.972;4.624;2023-02-13T09:33:48;102947.00;;;7.30;100.00
35151;BME280;55720;51.972;4.624;2023-02-13T09:36:20;102933.47;;;7.45;100.00
35151;BME280;55720;51.972;4.624;2023-02-13T09:38:47;102940.69;;;7.61;100.00
35151;BME280;55720;51.972;4.624;2023-02-13T09:41:20;102943.75;;;7.33;100.00
35151;BME280;55720;51.972;4.624;2023-02-13T09:43:51;102938.59;;;7.41;100.00
35151;BME280;55720;51.972;4.624;2023-02-13T09:46:21;102942.75;;;7.44;100.00
35151;BME280;55720;51.972;4.624;2023-02-13T09:48:54;102934.00;;;7.79;100.00
35151;BME280;55720;51.972;4.624;2023-02-13T09:51:21;102923.81;;;8.11;100.00
35151;BME280;55720;51.972;4.624;2023-02-13T09:53:54;102919.91;;;8.44;100.00
35151;BME280;55720;51.972;4.624;2023-02-13T10:02:01;102944.28;;;8.46;100.00
35151;BME280;55720;51.972;4.624;2023-02-13T10:07:24;102947.31;;;8.54;100.00
35151;BME280;55720;51.972;4.624;2023-02-13T10:10:01;102947.59;;;8.53;100.00
35151;BME280;55720;51.972;4.624;2023-02-13T10:12:36;102947.16;;;8.81;100.00
35151;BME280;55720;51.972;4.624;2023-02-13T10:15:13;102974.47;;;8.61;100.00
35151;BME280;55720;51.972;4.624;2023-02-13T10:17:55;102971.44;;;8.62;100.00
35151;BME280;55720;51.972;4.624;2023-02-13T10:20:36;102955.38;;;8.91;100.00
35151;BME280;55720;51.972;4.624;2023-02-13T10:26:14;102967.47;;;9.00;100.00
35151;BME280;55720;51.972;4.624;2023-02-13T10:29:03;102982.28;;;9.09;100.00
35151;BME280;55720;51.972;4.624;2023-02-13T10:31:50;102999.72;;;8.78;100.00
35151;BME280;55720;51.972;4.624;2023-02-13T10:34:20;102992.44;;;9.04;100.00
35151;BME280;55720;51.972;4.624;2023-02-13T10:36:46;102985.66;;;9.36;100.00
35151;BME280;55720;51.972;4.624;2023-02-13T10:39:22;102984.81;;;9.46;100.00
35151;BME280;55720;51.972;4.624;2023-02-13T10:44:41;103011.09;;;9.17;100.00
35151;BME280;55720;51.972;4.624;2023-02-13T10:50:41;103022.88;;;9.17;100.00
35151;BME280;55720;51.972;4.624;2023-02-13T10:53:23;103016.88;;;9.25;100.00
35151;BME280;55720;51.972;4.624;2023-02-13T10:56:01;103009.50;;;9.36;100.00
35151;BME280;55720;51.972;4.624;2023-02-13T10:58:41;103002.13;;;9.67;100.00
35151;BME280;55720;51.972;4.624;2023-02-13T11:04:07;103013.09;;;9.97;100.00
35151;BME280;55720;51.972;4.624;2023-02-13T11:06:35;103027.91;;;9.96;100.00
35151;BME280;55720;51.972;4.624;2023-02-13T11:09:04;103026.53;;;10.04;100.00
35151;BME280;55720;51.972;4.624;2023-02-13T11:14:07;103025.97;;;10.37;100.00
35151;BME280;55720;51.972;4.624;2023-02-13T11:19:34;103070.72;;;10.43;100.00
35151;BME280;55720;51.972;4.624;2023-02-13T11:22:07;103065.50;;;10.51;100.00
35151;BME280;55720;51.972;4.624;2023-02-13T11:24:35;103071.28;;;10.29;100.00
35151;BME280;55720;51.972;4.624;2023-02-13T11:27:07;103061.91;;;10.51;100.00
35151;BME280;55720;51.972;4.624;2023-02-13T11:29:35;103084.72;;;10.11;100.00
35151;BME280;55720;51.972;4.624;2023-02-13T11:32:25;103072.09;;;10.10;100.00
35151;BME280;55720;51.972;4.624;2023-02-13T11:34:51;103054.22;;;10.53;100.00
35151;BME280;55720;51.972;4.624;2023-02-13T11:37:29;103068.00;;;10.17;100.00
35151;BME280;55720;51.972;4.624;2023-02-13T11:39:57;103068.00;;;10.32;100.00
35151;BME280;55720;51.972;4.624;2023-02-13T11:42:34;103077.56;;;10.10;100.00
35151;BME280;55720;51.972;4.624;2023-02-13T11:47:41;103057.47;;;10.65;100.00
35151;BME280;55720;51.972;4.624;2023-02-13T11:50:28;103073.66;;;10.71;100.00
35151;BME280;55720;51.972;4.624;2023-02-13T11:53:22;103073.63;;;10.86;100.00
35151;BME280;55720;51.972;4.624;2023-02-13T11:56:13;103078.50;;;11.10;100.00
35151;BME280;55720;51.972;4.624;2023-02-13T11:58:39;103101.38;;;10.90;100.00
35151;BME280;55720;51.972;4.624;2023-02-13T12:06:26;103163.19;;;11.03;100.00
35151;BME280;55720;51.972;4.624;2023-02-13T12:08:51;103158.53;;;10.93;100.00
35151;BME280;55720;51.972;4.624;2023-02-13T12:11:44;103150.19;;;11.23;100.00
35151;BME280;55720;51.972;4.624;2023-02-13T12:14:19;103151.81;;;11.34;100.00
35151;BME280;55720;51.972;4.624;2023-02-13T12:16:54;103154.97;;;11.62;100.00
35151;BME280;55720;51.972;4.624;2023-02-13T12:19:28;103178.63;;;11.63;100.00
35151;BME280;55720;51.972;4.624;2023-02-13T12:24:52;103205.47;;;11.96;100.00
35151;BME280;55720;51.972;4.624;2023-02-13T12:35:45;103240.28;;;11.62;100.00
35151;BME280;55720;51.972;4.624;2023-02-13T12:43:32;103256.63;;;12.51;100.00
35151;BME280;55720;51.972;4.624;2023-02-13T12:46:08;103267.00;;;12.93;100.00
35151;BME280;55720;51.972;4.624;2023-02-13T12:56:58;103306.31;;;13.09;100.00
35151;BME280;55720;51.972;4.624;2023-02-13T13:08:11;103350.97;;;13.16;100.00
35151;BME280;55720;51.972;4.624;2023-02-13T13:13:37;103376.06;;;12.75;100.00
35151;BME280;55720;51.972;4.624;2023-02-13T13:16:16;103365.34;;;13.08;100.00
35151;BME280;55720;51.972;4.624;2023-02-13T13:18:58;103394.81;;;12.73;100.00
35151;BME280;55720;51.972;4.624;2023-02-13T13:21:54;103376.16;;;13.38;100.00
35151;BME280;55720;51.972;4.624;2023-02-13T13:27:02;103383.00;;;13.07;100.00
35151;BME280;55720;51.972;4.624;2023-02-13T13:29:42;103390.75;;;12.61;100.00
35151;BME280;55720;51.972;4.624;2023-02-13T13:32:15;103384.50;;;12.89;100.00
35151;BME280;55720;51.972;4.624;2023-02-13T13:34:43;103405.63;;;12.65;100.00
35151;BME280;55720;51.972;4.624;2023-02-13T13:37:29;103390.38;;;12.28;100.00
35151;BME280;55720;51.972;4.624;2023-02-13T13:40:25;103382.22;;;12.62;100.00
35151;BME280;55720;51.972;4.624;2023-02-13T13:50:53;103344.38;;;12.73;100.00
35151;BME280;55720;51.972;4.624;2023-02-13T13:53:20;103359.69;;;12.45;100.00
35151;BME280;55720;51.972;4.624;2023-02-13T14:03:38;103361.56;;;12.01;100.00
35151;BME280;55720;51.972;4.624;2023-02-13T14:06:09;103356.91;;;11.91;100.00
35151;BME280;55720;51.972;4.624;2023-02-13T14:11:26;103365.13;;;12.01;100.00
35151;BME280;55720;51.972;4.624;2023-02-13T14:13:52;103359.44;;;11.82;100.00
35151;BME280;55720;51.972;4.624;2023-02-13T14:16:41;103356.13;;;11.86;100.00
35151;BME280;55720;51.972;4.624;2023-02-13T14:19:28;103341.41;;;12.15;100.00
35151;BME280;55720;51.972;4.624;2023-02-13T14:24:52;103321.75;;;12.32;100.00
35151;BME280;55720;51.972;4.624;2023-02-13T14:27:22;103334.31;;;12.04;100.00
35151;BME280;55720;51.972;4.624;2023-02-13T14:29:49;103326.75;;;12.25;100.00
35151;BME280;55720;51.972;4.624;2023-02-13T14:32:36;103332.22;;;11.61;100.00
35151;BME280;55720;51.972;4.624;2023-02-13T14:35:18;103304.31;;;11.93;100.00
35151;BME280;55720;51.972;4.624;2023-02-13T14:37:50;103309.06;;;11.82;100.00
35151;BME280;55720;51.972;4.624;2023-02-13T14:43:27;103311.88;;;11.36;100.00
35151;BME280;55720;51.972;4.624;2023-02-13T14:48:27;103300.88;;;11.42;100.00
35151;BME280;55720;51.972;4.624;2023-02-13T14:50:57;103300.31;;;11.50;100.00
35151;BME280;55720;51.972;4.624;2023-02-13T14:53:34;103309.13;;;11.36;100.00
35151;BME280;55720;51.972;4.624;2023-02-13T14:56:12;103294.31;;;11.07;100.00
35151;BME280;55720;51.972;4.624;2023-02-13T15:01:43;103285.25;;;10.92;100.00
35151;BME280;55720;51.972;4.624;2023-02-13T15:04:20;103278.38;;;10.89;100.00
35151;BME280;55720;51.972;4.624;2023-02-13T15:06:48;103266.56;;;10.73;100.00
35151;BME280;55720;51.972;4.624;2023-02-13T15:09:23;103258.03;;;10.55;100.00
35151;BME280;55720;51.972;4.624;2023-02-13T15:11:50;103248.13;;;10.44;100.00
35151;BME280;55720;51.972;4.624;2023-02-13T15:14:33;103228.38;;;10.42;100.00
35151;BME280;55720;51.972;4.624;2023-02-13T15:17:17;103223.13;;;10.35;100.00
35151;BME280;55720;51.972;4.624;2023-02-13T15:19:49;103217.63;;;10.25;100.00
35151;BME280;55720;51.972;4.624;2023-02-13T15:22:18;103209.66;;;10.18;100.00
35151;BME280;55720;51.972;4.624;2023-02-13T15:24:46;103202.50;;;10.12;100.00
35151;BME280;55720;51.972;4.624;2023-02-13T15:27:23;103194.50;;;10.11;100.00
35151;BME280;55720;51.972;4.624;2023-02-13T15:32:23;103174.47;;;10.00;100.00
35151;BME280;55720;51.972;4.624;2023-02-13T15:34:50;103166.50;;;9.94;100.00
35151;BME280;55720;51.972;4.624;2023-02-13T15:37:23;103156.88;;;9.86;100.00
35151;BME280;55720;51.972;4.624;2023-02-13T15:39:49;103153.84;;;9.82;100.00
35151;BME280;55720;51.972;4.624;2023-02-13T15:42:15;103146.72;;;9.81;100.00
35151;BME280;55720;51.972;4.624;2023-02-13T15:44:43;103145.31;;;9.74;100.00
35151;BME280;55720;51.972;4.624;2023-02-13T15:47:29;103136.53;;;9.72;100.00